Time;durP1;ratioP1;P1;durP2;ratioP2;P2;SDS_P1;SDS_P2;PMS_P1;PMS_P2;Temp;Humidity;BMP_temperature;BMP_pressure;BME280_temperature;BME280_humidity;BME280_pressure;Samples;Min_cycle;Max_cycle;Signal;HPM_P1;HPM_P2
2023/12/10 00:00:58;;;;;;;17.67;6.35;;;8.10;99.90;;;;;;5095692;28;20051;-62
2023/12/10 00:03:24;;;;;;;17.77;5.45;;;8.10;99.90;;;;;;5096340;28;20043;-62
2023/12/10 00:05:50;;;;;;;22.65;5.85;;;8.20;99.90;;;;;;5095932;28;20126;-61
2023/12/10 00:08:16;;;;;;;15.35;4.97;;;8.20;99.90;;;;;;5095633;28;20122;-61
2023/12/10 00:10:42;;;;;;;18.38;4.45;;;8.30;99.90;;;;;;5079040;28;20560;-61
2023/12/10 00:13:09;;;;;;;24.55;5.70;;;8.30;99.90;;;;;;5114364;28;20039;-62
2023/12/10 00:15:37;;;;;;;23.65;4.90;;;8.30;99.90;;;;;;5095002;28;20045;-62
2023/12/10 00:18:03;;;;;;;17.75;5.13;;;8.30;99.90;;;;;;5112173;27;20043;-62
2023/12/10 00:20:29;;;;;;;22.45;5.63;;;8.30;99.90;;;;;;5116003;27;20510;-62
2023/12/10 00:22:55;;;;;;;24.23;5.03;;;8.30;99.90;;;;;;5134242;27;20039;-61
2023/12/10 00:25:20;;;;;;;16.77;5.15;;;8.40;99.90;;;;;;5116292;27;20050;-61
2023/12/10 00:27:46;;;;;;;24.35;7.75;;;8.40;99.90;;;;;;5115439;27;20479;-61
2023/12/10 00:30:13;;;;;;;23.48;6.30;;;8.40;99.90;;;;;;5116093;27;20039;-61
2023/12/10 00:32:39;;;;;;;20.65;6.28;;;8.40;99.90;;;;;;5116090;27;20043;-61
2023/12/10 00:35:06;;;;;;;20.50;6.25;;;8.40;99.90;;;;;;5115158;27;20828;-61
2023/12/10 00:37:32;;;;;;;18.63;6.25;;;8.40;99.90;;;;;;5130062;27;20046;-61
2023/12/10 00:39:59;;;;;;;18.13;6.03;;;8.40;99.90;;;;;;5133562;27;20031;-61
2023/12/10 00:42:25;;;;;;;20.52;5.70;;;8.40;99.90;;;;;;5132267;27;20091;-61
2023/12/10 00:44:51;;;;;;;18.23;4.72;;;8.30;99.90;;;;;;5115543;27;20039;-61
2023/12/10 00:47:16;;;;;;;22.83;5.40;;;8.30;99.90;;;;;;5134046;27;20042;-61
2023/12/10 00:49:43;;;;;;;14.35;4.40;;;8.30;99.90;;;;;;5110393;27;20042;-61
2023/12/10 00:52:09;;;;;;;19.42;4.30;;;8.30;99.90;;;;;;5115840;27;20035;-62
2023/12/10 00:54:34;;;;;;;18.92;4.75;;;8.20;99.90;;;;;;5115596;27;20119;-62
2023/12/10 00:57:00;;;;;;;17.25;5.15;;;8.20;99.90;;;;;;5121264;27;20038;-62
2023/12/10 00:59:26;;;;;;;21.55;5.47;;;8.20;99.90;;;;;;5115193;27;20047;-62
2023/12/10 01:01:52;;;;;;;20.90;5.30;;;8.10;99.90;;;;;;5132686;27;20042;-62
2023/12/10 01:04:18;;;;;;;16.52;5.15;;;8.10;99.90;;;;;;5127097;27;20078;-62
2023/12/10 01:06:44;;;;;;;19.65;5.95;;;8.00;99.90;;;;;;5097704;27;20081;-62
2023/12/10 01:09:09;;;;;;;21.27;4.97;;;8.00;99.90;;;;;;5115387;27;20391;-62
2023/12/10 01:11:35;;;;;;;14.43;4.28;;;7.90;99.90;;;;;;5114568;27;20039;-62
2023/12/10 01:14:03;;;;;;;13.75;4.20;;;7.90;99.90;;;;;;5098312;27;20086;-62
2023/12/10 01:16:29;;;;;;;19.50;5.63;;;7.90;99.90;;;;;;5114701;27;20047;-62
2023/12/10 01:18:55;;;;;;;20.25;5.85;;;7.80;99.90;;;;;;5097568;27;20111;-62
2023/12/10 01:21:21;;;;;;;17.17;5.43;;;7.80;99.90;;;;;;5115175;27;20039;-62
2023/12/10 01:23:49;;;;;;;20.10;6.97;;;7.80;99.90;;;;;;5115462;27;20038;-62
2023/12/10 01:26:15;;;;;;;24.88;6.40;;;7.80;99.90;;;;;;5114248;27;20092;-62
2023/12/10 01:28:40;;;;;;;16.83;5.78;;;7.80;99.90;;;;;;5114882;27;20403;-62
2023/12/10 01:31:06;;;;;;;18.58;6.03;;;7.80;99.90;;;;;;5114574;27;20043;-62
2023/12/10 01:33:32;;;;;;;19.63;5.40;;;7.80;99.90;;;;;;5114679;27;20054;-63
2023/12/10 01:35:57;;;;;;;24.35;6.95;;;7.70;99.90;;;;;;5133698;27;20073;-63
2023/12/10 01:38:23;;;;;;;19.88;5.18;;;7.70;99.90;;;;;;5097524;27;20042;-62
2023/12/10 01:40:49;;;;;;;23.15;5.47;;;7.80;99.90;;;;;;5114677;27;20039;-63
2023/12/10 01:43:18;;;;;;;18.42;6.00;;;7.80;99.90;;;;;;5114638;28;20038;-63
2023/12/10 01:45:50;;;;;;;20.08;5.28;;;7.70;99.90;;;;;;5117346;27;20031;-62
2023/12/10 01:48:19;;;;;;;16.40;4.70;;;7.70;99.90;;;;;;5114263;28;20039;-63
2023/12/10 01:50:46;;;;;;;20.30;7.05;;;7.70;99.90;;;;;;5114554;27;20039;-63
2023/12/10 01:53:12;;;;;;;18.85;6.57;;;7.70;99.90;;;;;;5096890;28;20539;-62
2023/12/10 01:55:39;;;;;;;17.88;5.60;;;7.70;99.90;;;;;;5097843;28;20123;-62
2023/12/10 01:58:05;;;;;;;22.10;5.35;;;7.70;99.90;;;;;;5114904;28;20418;-62
2023/12/10 02:00:32;;;;;;;16.83;4.93;;;7.70;99.90;;;;;;5113561;28;20054;-62
2023/12/10 02:03:03;;;;;;;17.88;4.35;;;7.70;99.90;;;;;;5114996;28;20095;-62
2023/12/10 02:05:28;;;;;;;19.33;4.93;;;7.70;99.90;;;;;;5114552;28;20487;-62
2023/12/10 02:07:54;;;;;;;18.33;4.65;;;7.70;99.90;;;;;;5106778;28;20045;-62
2023/12/10 02:10:20;;;;;;;15.65;4.00;;;7.70;99.90;;;;;;5117719;28;20042;-61
2023/12/10 02:12:47;;;;;;;13.63;4.10;;;7.70;99.90;;;;;;5097601;28;20054;-62
2023/12/10 02:15:17;;;;;;;22.33;5.38;;;7.70;99.90;;;;;;5113706;28;20039;-62
2023/12/10 02:17:44;;;;;;;18.40;5.25;;;7.70;99.90;;;;;;5114224;27;20036;-61
2023/12/10 02:20:14;;;;;;;13.65;4.28;;;7.70;99.90;;;;;;5117062;27;20031;-61
2023/12/10 02:22:51;;;;;;;20.02;4.85;;;7.60;99.90;;;;;;5118745;27;20073;-61
2023/12/10 02:25:22;;;;;;;22.05;4.90;;;7.60;99.90;;;;;;5123392;27;20046;-62
2023/12/10 02:27:48;;;;;;;19.08;5.75;;;7.60;99.90;;;;;;5091091;28;20435;-62
2023/12/10 02:30:14;;;;;;;18.25;3.80;;;7.70;99.90;;;;;;5098318;28;20088;-62
2023/12/10 02:32:40;;;;;;;18.23;5.35;;;7.70;99.90;;;;;;5097881;28;20043;-62
2023/12/10 02:35:06;;;;;;;19.75;5.95;;;7.70;99.90;;;;;;5097664;28;20450;-61
2023/12/10 02:37:32;;;;;;;15.68;4.57;;;7.70;99.90;;;;;;5097642;28;20054;-61
2023/12/10 02:39:58;;;;;;;13.60;4.50;;;7.60;99.90;;;;;;5097876;28;20027;-61
2023/12/10 02:42:24;;;;;;;18.23;3.70;;;7.60;99.90;;;;;;5098655;27;20096;-61
2023/12/10 02:44:49;;;;;;;14.45;3.83;;;7.60;99.90;;;;;;5118168;27;20070;-61
2023/12/10 02:47:15;;;;;;;19.38;3.88;;;7.60;99.90;;;;;;5118070;27;20023;-61
2023/12/10 02:49:40;;;;;;;21.52;6.00;;;7.60;99.90;;;;;;5134476;27;20043;-61
2023/12/10 02:52:06;;;;;;;13.85;4.22;;;7.60;99.90;;;;;;5135554;27;20070;-61
2023/12/10 02:54:32;;;;;;;15.40;3.97;;;7.60;99.90;;;;;;5127567;27;20069;-61
2023/12/10 02:56:57;;;;;;;14.88;4.47;;;7.60;99.90;;;;;;5117564;27;20062;-61
2023/12/10 02:59:23;;;;;;;14.80;3.80;;;7.60;99.90;;;;;;5097377;28;20047;-61
2023/12/10 03:01:49;;;;;;;11.10;3.25;;;7.70;99.90;;;;;;5114699;28;20517;-62
2023/12/10 03:04:15;;;;;;;13.02;3.72;;;7.60;99.90;;;;;;5113706;28;20088;-61
2023/12/10 03:06:40;;;;;;;13.98;3.70;;;7.70;99.90;;;;;;5114322;28;20048;-61
2023/12/10 03:09:06;;;;;;;8.80;3.08;;;7.60;99.90;;;;;;5114353;28;20085;-61
2023/12/10 03:11:32;;;;;;;10.55;3.42;;;7.70;99.90;;;;;;5113028;28;20389;-61
2023/12/10 03:13:57;;;;;;;10.38;3.00;;;7.70;99.90;;;;;;5096851;28;20042;-61
2023/12/10 03:16:23;;;;;;;9.77;2.80;;;7.70;99.90;;;;;;5114197;28;20031;-61
2023/12/10 03:18:49;;;;;;;11.75;3.00;;;7.70;99.90;;;;;;5096155;28;20123;-61
2023/12/10 03:21:14;;;;;;;10.80;2.72;;;7.70;99.90;;;;;;5115402;28;20034;-61
2023/12/10 03:23:40;;;;;;;8.75;2.90;;;7.70;99.90;;;;;;5113397;28;20040;-61
2023/12/10 03:26:06;;;;;;;16.02;3.60;;;7.70;99.90;;;;;;5115351;28;20496;-61
2023/12/10 03:28:31;;;;;;;13.77;3.17;;;7.70;99.90;;;;;;5113513;28;20092;-61
2023/12/10 03:30:57;;;;;;;13.15;3.42;;;7.80;99.90;;;;;;5112529;28;20078;-61
2023/12/10 03:33:23;;;;;;;11.90;4.03;;;7.70;99.90;;;;;;5113719;28;20055;-61
2023/12/10 03:35:48;;;;;;;17.20;4.45;;;7.80;99.90;;;;;;5096863;28;20067;-61
2023/12/10 03:38:14;;;;;;;12.80;3.30;;;7.80;99.90;;;;;;5112784;28;20032;-62
2023/12/10 03:40:40;;;;;;;12.32;3.25;;;7.90;99.90;;;;;;5113549;28;20047;-61
2023/12/10 03:43:06;;;;;;;18.70;4.05;;;7.90;99.90;;;;;;5113669;28;20082;-61
2023/12/10 03:45:31;;;;;;;15.57;3.17;;;7.90;99.90;;;;;;5112638;28;20058;-61
2023/12/10 03:47:57;;;;;;;10.23;3.13;;;7.90;99.90;;;;;;5114046;28;20036;-62
2023/12/10 03:50:23;;;;;;;12.60;4.20;;;7.90;99.90;;;;;;5114189;28;20039;-61
2023/12/10 03:52:49;;;;;;;11.82;3.25;;;8.00;99.90;;;;;;5095455;28;20101;-61
2023/12/10 03:55:14;;;;;;;13.73;4.60;;;8.00;99.90;;;;;;5113401;28;20046;-62
2023/12/10 03:57:40;;;;;;;14.85;4.32;;;8.10;99.90;;;;;;5113317;28;20043;-62
2023/12/10 04:00:06;;;;;;;22.10;4.68;;;8.10;99.90;;;;;;5112691;28;20052;-61
2023/12/10 04:02:32;;;;;;;17.30;5.13;;;8.10;99.90;;;;;;5096357;28;20067;-61
2023/12/10 04:04:58;;;;;;;9.95;3.42;;;8.10;99.90;;;;;;5096479;28;20485;-61
2023/12/10 04:07:24;;;;;;;17.42;4.15;;;8.10;99.90;;;;;;5113418;28;20038;-61
2023/12/10 04:09:50;;;;;;;15.60;3.58;;;8.10;99.90;;;;;;5095883;28;20031;-61
2023/12/10 04:12:15;;;;;;;11.60;3.65;;;8.20;99.90;;;;;;5113151;28;20465;-61
2023/12/10 04:14:44;;;;;;;11.70;3.53;;;8.10;99.90;;;;;;5112165;28;20089;-61
2023/12/10 04:17:10;;;;;;;16.92;3.33;;;8.20;99.90;;;;;;5112894;28;20530;-61
2023/12/10 04:19:36;;;;;;;15.98;3.92;;;8.30;99.90;;;;;;5112654;28;20032;-62
2023/12/10 04:22:05;;;;;;;16.45;3.40;;;8.20;99.90;;;;;;5112529;28;20043;-61
2023/12/10 04:24:30;;;;;;;19.73;4.50;;;8.30;99.90;;;;;;5112870;28;20047;-61
2023/12/10 04:26:56;;;;;;;18.10;3.03;;;8.30;99.90;;;;;;5112425;28;20540;-61
2023/12/10 04:29:22;;;;;;;18.08;3.28;;;8.40;99.90;;;;;;5112385;28;20047;-61
2023/12/10 04:31:47;;;;;;;15.38;3.70;;;8.30;99.90;;;;;;5112678;28;20035;-61
2023/12/10 04:34:13;;;;;;;18.33;3.85;;;8.40;99.90;;;;;;5094773;28;20382;-61
2023/12/10 04:36:39;;;;;;;12.93;4.60;;;8.40;99.90;;;;;;5112885;28;20036;-61
2023/12/10 04:39:04;;;;;;;10.00;4.20;;;8.40;99.90;;;;;;5112703;28;20049;-60
2023/12/10 04:41:30;;;;;;;12.10;3.80;;;8.30;99.90;;;;;;5110810;28;20044;-61
2023/12/10 04:43:56;;;;;;;9.63;2.97;;;8.40;99.90;;;;;;5096001;28;20056;-61
2023/12/10 04:46:21;;;;;;;17.73;3.42;;;8.40;99.90;;;;;;5112684;28;20079;-61
2023/12/10 04:48:47;;;;;;;8.35;2.60;;;8.40;99.90;;;;;;5094530;28;20055;-61
2023/12/10 04:51:13;;;;;;;9.73;2.55;;;8.40;99.90;;;;;;5111879;28;20051;-61
2023/12/10 04:53:38;;;;;;;14.13;4.28;;;8.40;99.90;;;;;;5112098;28;20050;-61
2023/12/10 04:56:05;;;;;;;14.85;3.17;;;8.40;99.90;;;;;;5111945;28;20039;-61
2023/12/10 04:58:30;;;;;;;15.57;2.58;;;8.50;99.90;;;;;;5094783;28;20047;-61
2023/12/10 05:00:56;;;;;;;14.05;4.47;;;8.40;99.90;;;;;;5112295;28;20063;-61
2023/12/10 05:03:22;;;;;;;7.60;2.22;;;8.50;99.90;;;;;;5094415;28;20035;-62
2023/12/10 05:05:47;;;;;;;11.52;2.35;;;8.50;99.90;;;;;;5111897;28;20123;-61
2023/12/10 05:08:13;;;;;;;10.07;1.88;;;8.40;99.90;;;;;;5111395;28;20126;-61
2023/12/10 05:10:39;;;;;;;6.55;1.63;;;8.40;99.90;;;;;;5110997;28;20046;-61
2023/12/10 05:13:05;;;;;;;6.20;1.85;;;8.40;99.90;;;;;;5112041;28;20036;-61
2023/12/10 05:15:30;;;;;;;10.70;1.77;;;8.40;99.90;;;;;;5111501;28;20443;-61
2023/12/10 05:17:56;;;;;;;7.30;2.13;;;8.30;99.90;;;;;;5111273;28;20085;-61
2023/12/10 05:20:22;;;;;;;5.40;1.63;;;8.40;99.90;;;;;;5111433;28;20032;-61
2023/12/10 05:22:47;;;;;;;5.30;1.50;;;8.40;99.90;;;;;;5111496;28;20392;-61
2023/12/10 05:25:13;;;;;;;7.65;1.73;;;8.30;99.90;;;;;;5111306;28;20134;-61
2023/12/10 05:27:39;;;;;;;6.53;2.05;;;8.30;99.90;;;;;;5111870;28;20565;-61
2023/12/10 05:30:05;;;;;;;5.10;1.42;;;8.30;99.90;;;;;;5111477;28;20048;-61
2023/12/10 05:32:31;;;;;;;9.20;1.92;;;8.30;99.90;;;;;;5110918;28;20088;-61
2023/12/10 05:34:56;;;;;;;8.48;2.00;;;8.30;99.90;;;;;;5111763;28;20043;-61
2023/12/10 05:37:22;;;;;;;8.73;2.20;;;8.30;99.90;;;;;;5110648;28;20043;-61
2023/12/10 05:39:48;;;;;;;11.50;2.00;;;8.30;99.90;;;;;;5111461;28;20044;-61
2023/12/10 05:42:13;;;;;;;5.30;2.15;;;8.30;99.90;;;;;;5110815;28;20035;-61
2023/12/10 05:44:39;;;;;;;10.50;2.63;;;8.30;99.90;;;;;;5110187;28;20404;-61
2023/12/10 05:47:05;;;;;;;6.95;2.35;;;8.40;99.90;;;;;;5111679;28;20103;-61
2023/12/10 05:49:31;;;;;;;7.20;2.30;;;8.40;99.90;;;;;;5110814;28;20124;-61
2023/12/10 05:51:57;;;;;;;15.15;3.00;;;8.40;99.90;;;;;;5111291;28;20554;-62
2023/12/10 05:54:23;;;;;;;10.38;3.15;;;8.40;99.90;;;;;;5111166;28;20480;-61
2023/12/10 05:56:48;;;;;;;11.32;3.35;;;8.50;99.90;;;;;;5111594;28;20031;-61
2023/12/10 05:59:15;;;;;;;14.55;3.53;;;8.50;99.90;;;;;;5109897;28;20047;-61
2023/12/10 06:01:42;;;;;;;15.38;4.15;;;8.50;99.90;;;;;;5094349;28;20039;-61
2023/12/10 06:04:07;;;;;;;15.38;3.55;;;8.60;99.90;;;;;;5093995;28;20042;-62
2023/12/10 06:06:33;;;;;;;15.93;3.00;;;8.50;99.90;;;;;;5110435;28;20399;-61
2023/12/10 06:08:59;;;;;;;14.05;4.30;;;8.60;99.90;;;;;;5111122;28;20054;-62
2023/12/10 06:11:25;;;;;;;15.80;3.10;;;8.50;99.90;;;;;;5111261;28;20051;-62
2023/12/10 06:13:50;;;;;;;12.07;2.60;;;8.60;99.90;;;;;;5110364;28;20451;-61
2023/12/10 06:16:16;;;;;;;15.27;3.83;;;8.60;99.90;;;;;;5111286;28;20079;-61
2023/12/10 06:18:42;;;;;;;19.38;3.53;;;8.60;99.90;;;;;;5110590;28;20496;-61
2023/12/10 06:21:07;;;;;;;20.75;5.22;;;8.60;99.90;;;;;;5093208;28;20032;-62
2023/12/10 06:23:33;;;;;;;12.13;3.63;;;8.60;99.90;;;;;;5110948;28;20043;-62
2023/12/10 06:25:59;;;;;;;16.90;3.50;;;8.60;99.90;;;;;;5110844;28;20112;-62
2023/12/10 06:28:25;;;;;;;13.13;3.38;;;8.50;99.90;;;;;;5109812;28;20040;-62
2023/12/10 06:30:51;;;;;;;12.75;3.67;;;8.60;99.90;;;;;;5111043;28;20047;-62
2023/12/10 06:33:16;;;;;;;12.88;3.55;;;8.60;99.90;;;;;;5093761;28;20134;-61
2023/12/10 06:35:42;;;;;;;11.85;4.03;;;8.70;99.90;;;;;;5109865;28;20177;-61
2023/12/10 06:38:08;;;;;;;15.38;3.42;;;8.60;99.90;;;;;;5111777;28;20086;-62
2023/12/10 06:40:33;;;;;;;12.75;3.10;;;8.60;99.90;;;;;;5110229;28;20056;-61
2023/12/10 06:42:59;;;;;;;13.32;4.68;;;8.70;99.90;;;;;;5110940;28;20169;-62
2023/12/10 06:45:25;;;;;;;13.77;5.18;;;8.70;99.90;;;;;;5093967;28;20043;-62
2023/12/10 06:47:51;;;;;;;12.23;2.55;;;8.60;99.90;;;;;;5110276;28;20066;-62
2023/12/10 06:50:16;;;;;;;7.30;2.40;;;8.60;99.90;;;;;;5110605;28;20035;-62
2023/12/10 06:52:42;;;;;;;9.95;3.00;;;8.60;99.90;;;;;;5110620;28;20039;-62
2023/12/10 06:55:09;;;;;;;11.27;3.05;;;8.60;99.90;;;;;;5111317;28;20034;-61
2023/12/10 06:57:34;;;;;;;13.23;2.97;;;8.60;99.90;;;;;;5110047;28;20067;-61
2023/12/10 07:00:00;;;;;;;11.65;3.50;;;8.70;99.90;;;;;;5128828;28;20075;-61
2023/12/10 07:02:26;;;;;;;9.38;2.55;;;8.60;99.90;;;;;;5128368;28;20047;-62
2023/12/10 07:04:51;;;;;;;10.88;2.75;;;8.60;99.90;;;;;;5114646;28;20043;-62
2023/12/10 07:07:17;;;;;;;12.20;3.13;;;8.60;99.90;;;;;;5114627;28;20046;-61
2023/12/10 07:09:43;;;;;;;12.70;3.85;;;8.60;99.90;;;;;;5115086;27;20043;-61
2023/12/10 07:12:09;;;;;;;11.02;3.13;;;8.60;99.90;;;;;;5114530;27;20093;-61
2023/12/10 07:14:34;;;;;;;11.75;3.10;;;8.60;99.90;;;;;;5113921;28;20526;-62
2023/12/10 07:17:00;;;;;;;16.52;4.47;;;8.70;99.90;;;;;;5114850;28;20031;-62
2023/12/10 07:19:26;;;;;;;15.43;3.15;;;8.70;99.90;;;;;;5115557;27;20036;-62
2023/12/10 07:21:52;;;;;;;13.77;3.75;;;8.60;99.90;;;;;;5134535;27;20047;-61
2023/12/10 07:24:20;;;;;;;11.38;4.78;;;8.60;99.90;;;;;;5133914;27;20043;-61
2023/12/10 07:26:46;;;;;;;11.07;2.60;;;8.60;99.90;;;;;;5117340;27;20039;-61
2023/12/10 07:29:12;;;;;;;14.20;3.55;;;8.60;99.90;;;;;;5134350;27;20066;-61
2023/12/10 07:31:37;;;;;;;18.10;4.00;;;8.60;99.90;;;;;;5113650;27;20047;-61
2023/12/10 07:34:04;;;;;;;15.75;3.80;;;8.60;99.90;;;;;;5114820;27;20385;-61
2023/12/10 07:36:30;;;;;;;14.02;3.10;;;8.60;99.90;;;;;;5113349;28;20035;-61
2023/12/10 07:38:55;;;;;;;14.88;3.30;;;8.60;99.90;;;;;;5096802;28;20039;-61
2023/12/10 07:41:21;;;;;;;14.95;3.65;;;8.60;99.90;;;;;;5113454;28;20362;-61
2023/12/10 07:43:47;;;;;;;17.35;4.78;;;8.60;99.90;;;;;;5112755;28;20036;-61
2023/12/10 07:46:13;;;;;;;12.05;3.08;;;8.60;99.90;;;;;;5096108;28;20521;-61
2023/12/10 07:48:38;;;;;;;11.75;2.90;;;8.70;99.90;;;;;;5117446;27;20054;-61
2023/12/10 07:51:04;;;;;;;11.90;2.78;;;8.60;99.90;;;;;;5118375;27;20773;-62
2023/12/10 07:53:30;;;;;;;8.02;2.75;;;8.60;99.90;;;;;;5095933;28;20039;-62
2023/12/10 07:55:56;;;;;;;12.82;4.00;;;8.60;99.90;;;;;;5113484;28;20047;-61
2023/12/10 07:58:24;;;;;;;10.80;3.67;;;8.60;99.90;;;;;;5112478;28;20040;-61
2023/12/10 08:00:51;;;;;;;13.63;4.10;;;8.60;99.90;;;;;;5113332;28;20040;-62
2023/12/10 08:03:17;;;;;;;12.82;3.85;;;8.50;99.90;;;;;;5113102;28;20086;-61
2023/12/10 08:05:42;;;;;;;26.35;4.82;;;8.50;99.90;;;;;;5095171;28;20071;-61
2023/12/10 08:08:08;;;;;;;19.02;4.72;;;8.60;99.90;;;;;;5113428;28;20046;-61
2023/12/10 08:10:34;;;;;;;18.63;4.65;;;8.50;99.90;;;;;;5112919;28;20097;-61
2023/12/10 08:13:00;;;;;;;17.20;4.00;;;8.40;99.90;;;;;;5112510;28;20036;-61
2023/12/10 08:15:28;;;;;;;16.15;3.85;;;8.40;99.90;;;;;;5112850;28;20071;-61
2023/12/10 08:17:54;;;;;;;16.52;3.10;;;8.40;99.90;;;;;;5113104;28;20400;-61
2023/12/10 08:20:20;;;;;;;14.63;4.40;;;8.50;99.90;;;;;;5111742;28;20035;-62
2023/12/10 08:22:47;;;;;;;19.85;4.07;;;8.50;99.90;;;;;;5112275;28;20046;-62
2023/12/10 08:25:13;;;;;;;15.45;5.13;;;8.50;99.90;;;;;;5112629;28;20507;-61
2023/12/10 08:27:39;;;;;;;18.33;4.03;;;8.50;99.90;;;;;;5111929;28;20039;-62
2023/12/10 08:30:05;;;;;;;23.52;5.18;;;8.40;99.90;;;;;;5112821;28;20169;-62
2023/12/10 08:32:31;;;;;;;21.77;5.15;;;8.40;99.90;;;;;;5112176;28;20044;-61
2023/12/10 08:34:57;;;;;;;16.23;4.35;;;8.50;99.90;;;;;;5111706;28;20142;-61
2023/12/10 08:37:22;;;;;;;18.42;4.68;;;8.40;99.90;;;;;;5112603;28;20051;-61
2023/12/10 08:39:49;;;;;;;23.17;5.07;;;8.40;99.90;;;;;;5112409;28;20492;-61
2023/12/10 08:42:16;;;;;;;20.85;4.95;;;8.40;99.90;;;;;;5111526;28;20039;-62
2023/12/10 08:44:41;;;;;;;26.33;4.03;;;8.40;99.90;;;;;;5112468;28;20047;-61
2023/12/10 08:47:07;;;;;;;17.30;4.57;;;8.50;99.90;;;;;;5111677;28;20435;-61
2023/12/10 08:49:33;;;;;;;15.82;4.30;;;8.50;99.90;;;;;;5112475;28;20361;-61
2023/12/10 08:51:59;;;;;;;16.10;3.97;;;8.50;99.90;;;;;;5112992;28;20456;-62
2023/12/10 08:54:24;;;;;;;21.27;4.47;;;8.50;99.90;;;;;;5110999;28;20083;-61
2023/12/10 08:56:50;;;;;;;11.43;4.03;;;8.60;99.90;;;;;;5089417;28;20039;-62
2023/12/10 08:59:16;;;;;;;14.38;3.53;;;8.60;99.90;;;;;;5080410;28;20063;-62
2023/12/10 09:01:42;;;;;;;25.10;4.63;;;8.60;99.90;;;;;;5092073;28;20536;-61
2023/12/10 09:04:08;;;;;;;24.52;4.70;;;8.60;99.90;;;;;;5109088;28;20095;-62
2023/12/10 09:28:39;;;;;;;19.00;3.10;;;8.50;99.90;;;;;;5088765;28;20035;-61
2023/12/10 09:31:05;;;;;;;11.10;2.92;;;8.50;99.90;;;;;;5095572;28;20415;-61
2023/12/10 09:33:31;;;;;;;11.05;3.28;;;8.50;99.90;;;;;;5091048;28;20058;-63
2023/12/10 09:35:57;;;;;;;21.20;5.10;;;8.50;99.90;;;;;;5091867;28;20043;-61
2023/12/10 09:38:22;;;;;;;12.82;3.20;;;8.60;99.90;;;;;;5090910;28;20042;-61
2023/12/10 09:40:48;;;;;;;14.73;3.40;;;8.60;99.90;;;;;;5108151;28;20116;-61
2023/12/10 09:43:14;;;;;;;13.50;3.75;;;8.60;99.90;;;;;;5107830;28;20088;-61
2023/12/10 09:45:39;;;;;;;13.30;3.55;;;8.60;99.90;;;;;;5107624;28;20046;-61
2023/12/10 09:48:06;;;;;;;17.50;3.70;;;8.70;99.90;;;;;;5108754;28;20097;-61
2023/12/10 09:50:38;;;;;;;12.95;3.03;;;8.70;99.90;;;;;;5106878;28;20168;-62
2023/12/10 09:53:08;;;;;;;14.20;3.28;;;8.70;99.90;;;;;;5108039;28;20518;-61
2023/12/10 09:55:35;;;;;;;16.48;3.38;;;8.60;99.90;;;;;;5090056;28;20046;-62
2023/12/10 09:58:01;;;;;;;15.07;3.33;;;8.60;99.90;;;;;;5108707;28;20043;-64
2023/12/10 10:00:27;;;;;;;13.35;3.60;;;8.60;99.90;;;;;;5111309;28;20518;-62
2023/12/10 10:03:02;;;;;;;15.95;3.63;;;8.60;99.90;;;;;;5093608;28;20054;-61
2023/12/10 10:05:28;;;;;;;;;;;8.50;99.90;;;;;;5094275;28;20121;-61
2023/12/10 10:07:54;;;;;;;26.33;7.90;;;8.50;99.90;;;;;;5111249;28;20002;-61
2023/12/10 10:10:22;;;;;;;20.33;4.80;;;8.50;99.90;;;;;;5111550;28;20052;-62
2023/12/10 10:12:48;;;;;;;14.88;4.25;;;8.40;99.90;;;;;;5072200;28;20039;-62
2023/12/10 10:15:14;;;;;;;25.33;6.75;;;8.50;99.90;;;;;;5091549;28;20126;-62
2023/12/10 10:17:42;;;;;;;24.52;5.85;;;8.40;99.90;;;;;;5110418;28;20047;-61
2023/12/10 10:20:09;;;;;;;24.00;5.97;;;8.50;99.90;;;;;;5110099;28;20039;-61
2023/12/10 10:22:35;;;;;;;20.67;6.13;;;8.50;99.90;;;;;;5111255;28;20042;-62
2023/12/10 10:25:03;;;;;;;21.75;7.43;;;8.50;99.90;;;;;;5111294;28;20070;-62
2023/12/10 10:27:31;;;;;;;22.58;5.82;;;8.50;99.90;;;;;;5109629;28;20066;-61
2023/12/10 10:29:57;;;;;;;28.95;8.52;;;8.50;99.90;;;;;;5112123;28;20501;-61
2023/12/10 10:32:23;;;;;;;27.88;7.45;;;8.50;99.90;;;;;;5094108;28;20051;-61
2023/12/10 10:34:50;;;;;;;24.05;5.35;;;8.50;99.90;;;;;;5110503;28;20069;-62
2023/12/10 10:37:17;;;;;;;22.85;5.45;;;8.50;99.90;;;;;;5094243;28;20131;-61
2023/12/10 10:39:44;;;;;;;27.10;6.53;;;8.60;99.90;;;;;;5094117;27;20043;-61
2023/12/10 10:42:10;;;;;;;19.05;6.22;;;8.60;99.90;;;;;;5115597;27;20096;-61
2023/12/10 10:44:37;;;;;;;30.35;4.90;;;8.60;99.90;;;;;;5114738;27;20062;-61
2023/12/10 10:47:05;;;;;;;20.88;5.10;;;8.60;99.90;;;;;;5097503;27;20135;-61
2023/12/10 10:49:33;;;;;;;28.55;5.60;;;8.60;99.90;;;;;;5097993;28;20528;-62
2023/12/10 10:52:01;;;;;;;29.95;6.07;;;8.60;99.90;;;;;;5123453;27;20043;-63
2023/12/10 10:54:28;;;;;;;22.58;6.75;;;8.70;99.90;;;;;;5114457;27;20499;-62
2023/12/10 10:56:53;;;;;;;30.77;7.28;;;8.70;99.90;;;;;;5119387;27;20039;-61
2023/12/10 10:59:30;;;;;;;24.40;5.30;;;8.70;99.90;;;;;;5126660;27;20051;-61
2023/12/10 11:02:01;;;;;;;26.90;5.68;;;8.70;99.90;;;;;;5124492;27;20049;-61
2023/12/10 11:04:34;;;;;;;28.02;8.27;;;8.70;99.90;;;;;;5114615;27;20047;-63
2023/12/10 11:07:02;;;;;;;24.92;6.97;;;8.70;99.90;;;;;;5111206;27;20058;-61
2023/12/10 11:09:31;;;;;;;26.27;6.13;;;8.70;99.90;;;;;;5113877;27;20093;-62
2023/12/10 11:11:58;;;;;;;22.00;6.00;;;8.80;99.90;;;;;;5132781;27;20753;-61
2023/12/10 11:14:24;;;;;;;25.58;6.32;;;8.80;99.90;;;;;;5130685;27;20122;-61
2023/12/10 11:17:04;;;;;;;21.15;5.65;;;8.80;99.90;;;;;;5130910;27;20071;-62
2023/12/10 11:19:32;;;;;;;27.13;5.93;;;8.80;99.90;;;;;;5113788;27;20547;-61
2023/12/10 11:21:59;;;;;;;28.70;6.25;;;8.80;99.90;;;;;;5113304;27;20035;-61
2023/12/10 11:24:25;;;;;;;21.90;5.85;;;8.80;99.90;;;;;;5114467;27;20396;-61
2023/12/10 11:26:51;;;;;;;24.15;6.00;;;8.80;99.90;;;;;;5114904;27;20039;-61
2023/12/10 11:29:16;;;;;;;21.90;5.78;;;8.80;99.90;;;;;;5113885;27;20046;-61
2023/12/10 11:31:44;;;;;;;22.20;7.15;;;8.70;99.90;;;;;;5096967;27;20046;-62
2023/12/10 11:34:10;;;;;;;26.67;6.45;;;8.80;99.90;;;;;;5104125;27;20046;-61
2023/12/10 11:36:36;;;;;;;20.70;5.25;;;8.80;99.90;;;;;;5113131;27;20043;-61
2023/12/10 11:39:02;;;;;;;26.70;6.22;;;8.80;99.90;;;;;;5114241;27;20051;-61
2023/12/10 11:41:28;;;;;;;22.70;5.97;;;8.80;99.90;;;;;;5114087;27;20075;-62
2023/12/10 11:43:54;;;;;;;32.35;8.43;;;8.80;99.90;;;;;;5112634;27;20070;-61
2023/12/10 11:46:21;;;;;;;26.58;6.72;;;8.70;99.90;;;;;;5096996;27;20118;-61
2023/12/10 11:48:47;;;;;;;25.42;6.00;;;8.70;99.90;;;;;;5113829;27;20043;-61
2023/12/10 11:51:13;;;;;;;26.42;6.40;;;8.70;99.90;;;;;;5112626;27;20058;-62
2023/12/10 11:53:39;;;;;;;30.90;6.30;;;8.70;99.90;;;;;;5113237;27;20039;-61
2023/12/10 11:56:08;;;;;;;34.83;8.45;;;8.60;99.90;;;;;;5114116;27;20042;-61
2023/12/10 11:58:33;;;;;;;32.67;7.68;;;8.60;99.90;;;;;;5109397;28;20384;-61
2023/12/10 12:01:00;;;;;;;28.92;7.38;;;8.60;99.90;;;;;;5110885;28;20044;-61
2023/12/10 12:03:29;;;;;;;35.45;9.88;;;8.60;99.90;;;;;;5110704;28;20550;-61
2023/12/10 12:05:55;;;;;;;26.75;7.47;;;8.60;99.90;;;;;;5110336;28;20424;-61
2023/12/10 12:08:26;;;;;;;26.90;8.45;;;8.70;99.90;;;;;;5110004;28;20046;-61
2023/12/10 12:10:53;;;;;;;23.70;8.07;;;8.70;99.90;;;;;;5110053;28;20559;-61
2023/12/10 12:13:19;;;;;;;29.00;8.18;;;8.70;99.90;;;;;;5107733;28;20118;-61
2023/12/10 12:15:49;;;;;;;30.73;6.82;;;8.70;99.90;;;;;;5093344;28;20164;-61
2023/12/10 12:18:15;;;;;;;29.27;6.05;;;8.80;99.90;;;;;;5109621;28;20038;-61
2023/12/10 12:20:41;;;;;;;23.52;7.25;;;8.80;99.90;;;;;;5109837;28;20430;-60
2023/12/10 12:23:07;;;;;;;27.27;9.85;;;8.90;99.90;;;;;;5110675;28;20039;-60
2023/12/10 12:25:37;;;;;;;31.60;7.95;;;8.90;99.90;;;;;;5092950;28;20132;-60
2023/12/10 12:28:07;;;;;;;20.92;7.50;;;8.90;99.90;;;;;;5110349;28;20047;-60
2023/12/10 12:30:34;;;;;;;17.80;5.95;;;8.90;99.90;;;;;;5109337;28;20543;-60
2023/12/10 12:33:00;;;;;;;24.17;5.90;;;8.90;99.90;;;;;;5109914;28;20071;-60
2023/12/10 12:35:27;;;;;;;25.60;6.40;;;8.90;99.90;;;;;;5109922;28;20055;-61
2023/12/10 12:37:54;;;;;;;26.08;6.32;;;8.90;99.90;;;;;;5093058;28;20051;-60
2023/12/10 12:40:20;;;;;;;18.95;5.95;;;8.90;99.90;;;;;;5109753;28;20070;-61
2023/12/10 12:42:48;;;;;;;24.80;5.85;;;8.90;99.90;;;;;;5109794;28;20443;-60
2023/12/10 12:45:18;;;;;;;19.15;5.05;;;8.90;99.90;;;;;;5110006;28;20114;-60
2023/12/10 12:47:44;;;;;;;22.35;5.65;;;8.90;99.90;;;;;;5092767;28;20044;-61
2023/12/10 12:50:10;;;;;;;20.88;5.05;;;8.90;99.90;;;;;;5110523;28;20039;-61
2023/12/10 12:52:36;;;;;;;24.83;4.72;;;8.90;99.90;;;;;;5109762;28;20169;-60
2023/12/10 12:55:03;;;;;;;17.98;5.18;;;9.00;99.90;;;;;;5091982;28;20126;-61
2023/12/10 12:57:29;;;;;;;26.73;5.65;;;9.00;99.90;;;;;;5109796;28;20057;-60
2023/12/10 12:59:55;;;;;;;23.63;5.68;;;9.00;99.90;;;;;;5108993;28;20059;-61
2023/12/10 13:02:21;;;;;;;22.73;5.75;;;9.00;99.90;;;;;;5091273;28;20075;-61
2023/12/10 13:04:47;;;;;;;22.02;6.05;;;8.90;99.90;;;;;;5109599;28;20047;-60